Time;durP1;ratioP1;P1;durP2;ratioP2;P2;SDS_P1;SDS_P2;PMS_P1;PMS_P2;Temp;Humidity;BMP_temperature;BMP_pressure;BME280_temperature;BME280_humidity;BME280_pressure;Samples;Min_cycle;Max_cycle;Signal;HPM_P1;HPM_P2
2022/06/24 01:03:20;;;;;;;5.67;4.60;;;;;;;14.91;100.00;99163.17;1650469;87;20945;-73
2022/06/24 01:05:48;;;;;;;8.85;4.37;;;;;;;14.98;100.00;99162.27;1628274;88;21281;-74
2022/06/24 01:08:14;;;;;;;9.73;5.47;;;;;;;14.98;100.00;99166.31;1683966;85;21444;-75
2022/06/24 01:10:42;;;;;;;10.65;4.30;;;;;;;14.96;100.00;99163.09;1683892;85;20902;-73
2022/06/24 01:13:09;;;;;;;5.30;4.55;;;;;;;14.91;100.00;99165.88;1680005;85;21026;-73
2022/06/24 01:15:38;;;;;;;7.72;4.92;;;;;;;14.89;100.00;99168.06;1684759;84;21526;-72
2022/06/24 01:18:07;;;;;;;7.92;3.83;;;;;;;14.88;100.00;99165.11;1683607;85;21411;-72
2022/06/24 01:20:34;;;;;;;6.25;4.40;;;;;;;14.89;100.00;99172.11;1683652;85;20958;-73
2022/06/24 01:23:01;;;;;;;4.78;3.98;;;;;;;14.89;100.00;99168.06;1659943;85;20904;-73
2022/06/24 01:25:31;;;;;;;5.67;3.72;;;;;;;14.87;100.00;99168.37;1683676;85;21543;-73
2022/06/24 01:27:58;;;;;;;8.93;4.65;;;;;;;14.88;100.00;99170.52;1668007;85;20959;-73
2022/06/24 01:30:27;;;;;;;5.90;3.67;;;;;;;14.87;100.00;99169.72;1661727;86;21128;-73
2022/06/24 01:32:54;;;;;;;7.65;3.52;;;;;;;14.88;100.00;99170.52;1640543;86;21521;-72
2022/06/24 01:35:21;;;;;;;7.25;3.90;;;;;;;14.88;100.00;99170.52;1661917;86;21426;-72
2022/06/24 01:37:48;;;;;;;6.15;4.30;;;;;;;14.91;100.00;99172.63;1661599;86;21505;-73
2022/06/24 01:40:15;;;;;;;6.53;3.90;;;;;;;14.91;100.00;99170.72;1661907;86;20940;-73
2022/06/24 01:42:41;;;;;;;7.83;4.97;;;;;;;14.93;100.00;99170.44;1661365;86;21266;-72
2022/06/24 01:45:10;;;;;;;9.63;4.53;;;;;;;14.95;100.00;99165.00;1661932;86;20987;-72
2022/06/24 01:47:37;;;;;;;5.05;4.10;;;;;;;14.97;100.00;99166.87;1661103;86;20991;-73
2022/06/24 01:50:06;;;;;;;8.40;4.83;;;;;;;14.99;100.00;99163.33;1661984;86;20960;-73
2022/06/24 01:52:33;;;;;;;4.92;4.10;;;;;;;15.01;100.00;99160.31;1640209;86;21473;-72
2022/06/24 01:55:00;;;;;;;4.45;3.77;;;;;;;15.03;100.00;99167.59;1661538;86;22163;-72
2022/06/24 01:57:27;;;;;;;5.03;3.35;;;;;;;15.03;100.00;99177.05;1661465;86;21509;-72
2022/06/24 01:59:58;;;;;;;4.45;3.52;;;;;;;15.05;100.00;99178.92;1661315;86;20932;-73
2022/06/24 02:02:23;;;;;;;4.75;3.80;;;;;;;15.06;100.00;99181.86;1657824;85;20897;-72
2022/06/24 02:04:52;;;;;;;12.45;4.78;;;;;;;15.10;100.00;99191.56;1654055;86;20965;-71
2022/06/24 02:07:19;;;;;;;7.50;4.70;;;;;;;15.09;100.00;99184.00;1653990;86;21869;-72
2022/06/24 02:15:18;;;;;;;7.92;4.95;;;;;;;15.13;100.00;99187.70;1653990;86;20961;-72
2022/06/24 02:17:45;;;;;;;5.22;4.15;;;;;;;15.14;100.00;99188.50;1653993;86;20984;-72
2022/06/24 02:20:12;;;;;;;13.20;4.30;;;;;;;15.13;100.00;99182.86;1654118;86;21157;-73
2022/06/24 02:22:39;;;;;;;5.58;4.03;;;;;;;15.12;100.00;99192.08;1653984;86;20967;-72
2022/06/24 02:25:07;;;;;;;6.72;4.47;;;;;;;15.08;100.00;99189.13;1653512;86;21054;-72
2022/06/24 02:27:34;;;;;;;8.40;3.98;;;;;;;15.05;100.00;99191.63;1653439;86;21013;-71
2022/06/24 02:30:00;;;;;;;5.53;4.00;;;;;;;14.99;100.00;99190.36;1653297;86;20944;-73
2022/06/24 02:32:27;;;;;;;7.67;4.20;;;;;;;14.94;100.00;99193.66;1654127;86;21142;-71
2022/06/24 02:34:54;;;;;;;4.78;3.72;;;;;;;14.90;100.00;99193.45;1652831;86;21415;-72
2022/06/24 02:37:21;;;;;;;6.58;4.30;;;;;;;14.88;100.00;99190.78;1653877;86;20932;-73
2022/06/24 02:39:48;;;;;;;15.48;5.10;;;;;;;14.85;100.00;99188.11;1654140;86;20972;-72
2022/06/24 02:42:14;;;;;;;7.42;4.78;;;;;;;14.82;100.00;99192.75;1650298;86;21601;-72
2022/06/24 02:44:41;;;;;;;9.23;5.25;;;;;;;14.81;100.00;99197.09;1652546;86;21264;-73
2022/06/24 02:47:09;;;;;;;9.75;5.80;;;;;;;14.73;100.00;99187.18;1653891;86;20988;-71
2022/06/24 02:49:35;;;;;;;8.33;4.87;;;;;;;14.67;100.00;99190.23;1653947;86;21611;-71
2022/06/24 02:52:04;;;;;;;11.50;5.35;;;;;;;14.60;100.00;99193.30;1654161;86;20945;-73
2022/06/24 02:54:30;;;;;;;;;;;;;;;14.54;100.00;99187.14;1659412;86;20989;-72
2022/06/24 02:56:57;;;;;;;5.90;4.87;;;;;;;14.49;100.00;99191.22;1653961;86;21161;-70
2022/06/24 02:59:24;;;;;;;7.95;4.80;;;;;;;14.43;100.00;99182.11;1653852;86;20944;-71
2022/06/24 03:01:51;;;;;;;10.25;4.85;;;;;;;14.42;100.00;99186.71;1653445;86;20872;-72
2022/06/24 03:04:19;;;;;;;9.53;4.62;;;;;;;14.39;100.00;99186.50;1654044;86;21554;-74
2022/06/24 03:06:46;;;;;;;5.87;4.47;;;;;;;14.37;100.00;99186.22;1653553;86;21047;-72
2022/06/24 03:09:12;;;;;;;5.65;4.85;;;;;;;14.47;100.00;99189.91;1653738;86;21259;-70
2022/06/24 03:11:40;;;;;;;5.10;4.28;;;;;;;14.69;100.00;99195.59;1652701;86;21023;-73
2022/06/24 03:14:07;;;;;;;20.05;4.95;;;;;;;14.96;100.00;99192.82;1654231;86;21016;-72
2022/06/24 03:16:34;;;;;;;7.17;4.30;;;;;;;15.28;100.00;99191.29;1653635;86;21410;-73
2022/06/24 03:19:01;;;;;;;11.90;4.80;;;;;;;15.62;100.00;99193.73;1653617;86;20924;-72
2022/06/24 03:21:28;;;;;;;8.85;4.37;;;;;;;16.05;100.00;99197.63;1647943;86;21231;-73
2022/06/24 03:23:55;;;;;;;5.33;4.12;;;;;;;16.39;100.00;99205.39;1633339;87;21015;-73
2022/06/24 03:26:21;;;;;;;4.90;3.72;;;;;;;16.80;100.00;99206.48;1635124;87;20923;-72
2022/06/24 03:28:48;;;;;;;5.33;4.53;;;;;;;17.08;100.00;99205.34;1633363;88;21007;-72
2022/06/24 03:31:15;;;;;;;9.45;4.25;;;;;;;17.38;100.00;99219.88;1633110;88;21314;-73
2022/06/24 03:33:42;;;;;;;7.28;4.05;;;;;;;17.58;100.00;99213.95;1633585;88;21267;-72
2022/06/24 03:36:11;;;;;;;5.78;4.05;;;;;;;17.67;100.00;99221.61;1633131;87;21019;-71
2022/06/24 03:38:38;;;;;;;10.03;4.60;;;;;;;17.90;100.00;99210.20;1633334;87;20963;-73
2022/06/24 03:41:05;;;;;;;10.38;4.40;;;;;;;17.99;100.00;99212.41;1633726;87;21454;-72
2022/06/24 03:43:32;;;;;;;14.50;5.17;;;;;;;18.08;100.00;99212.47;1633026;87;20932;-73
2022/06/24 03:46:02;;;;;;;12.20;5.95;;;;;;;17.73;100.00;99214.13;1633634;87;21121;-71
2022/06/24 03:48:30;;;;;;;11.85;5.25;;;;;;;17.46;100.00;99221.84;1633605;87;21494;-70
2022/06/24 03:50:58;;;;;;;9.50;4.05;;;;;;;17.20;100.00;99213.48;1633307;88;20963;-69
2022/06/24 03:53:26;;;;;;;5.33;3.50;;;;;;;16.99;100.00;99218.00;1634758;87;21007;-70
2022/06/24 03:55:53;;;;;;;8.25;5.05;;;;;;;16.85;100.00;99216.66;1633143;87;20916;-72
2022/06/24 03:58:20;;;;;;;20.48;5.87;;;;;;;16.77;100.00;99216.00;1633500;87;21280;-71
2022/06/24 04:00:46;;;;;;;7.15;4.55;;;;;;;17.16;100.00;99216.02;1633400;88;21470;-72
2022/06/24 04:03:13;;;;;;;7.47;4.20;;;;;;;17.70;100.00;99224.26;1650707;86;20916;-72
2022/06/24 04:05:40;;;;;;;6.62;3.60;;;;;;;18.14;100.00;99220.72;1664210;85;20929;-71
2022/06/24 04:08:07;;;;;;;5.45;3.30;;;;;;;18.52;97.34;99222.15;1663536;85;20925;-72
2022/06/24 04:10:37;;;;;;;7.70;3.72;;;;;;;18.79;94.04;99230.13;1664058;85;21964;-72
2022/06/24 04:13:04;;;;;;;4.42;3.17;;;;;;;18.92;91.60;99237.90;1665447;85;20909;-72
2022/06/24 04:15:31;;;;;;;4.83;3.70;;;;;;;19.06;92.40;99231.77;1663891;85;20885;-73
2022/06/24 04:17:58;;;;;;;7.40;3.90;;;;;;;19.28;89.51;99241.72;1663926;85;20948;-70
2022/06/24 04:20:25;;;;;;;5.30;3.80;;;;;;;19.44;84.51;99243.95;1663714;85;20917;-76
2022/06/24 04:22:52;;;;;;;6.30;3.95;;;;;;;19.65;82.45;99246.84;1664390;84;21211;-72
2022/06/24 04:25:18;;;;;;;7.35;3.65;;;;;;;19.86;82.39;99245.07;1663907;85;21439;-74
2022/06/24 04:27:45;;;;;;;9.03;3.62;;;;;;;19.97;80.74;99251.56;1663845;86;21518;-73
2022/06/24 04:30:13;;;;;;;6.67;3.00;;;;;;;19.77;79.31;99249.75;1663878;85;20861;-71
2022/06/24 04:32:39;;;;;;;9.50;3.90;;;;;;;19.73;80.13;99254.23;1664227;85;20976;-73
2022/06/24 04:35:07;;;;;;;5.20;3.30;;;;;;;19.64;80.79;99253.39;1664352;85;21242;-70
2022/06/24 04:37:39;;;;;;;4.97;3.08;;;;;;;19.72;80.50;99244.47;1663923;85;28140;-69
2022/06/24 04:40:08;;;;;;;4.97;3.20;;;;;;;19.40;83.58;99249.79;1663111;86;20932;-72
2022/06/24 04:42:35;;;;;;;5.80;3.55;;;;;;;19.13;83.93;99245.45;1663846;85;20881;-71
2022/06/24 04:45:06;;;;;;;11.48;3.72;;;;;;;18.77;87.29;99249.23;1663782;85;20869;-70
2022/06/24 04:47:33;;;;;;;8.88;3.87;;;;;;;18.67;90.15;99252.17;1664058;85;21154;-70
2022/06/24 04:50:00;;;;;;;11.57;4.40;;;;;;;18.69;90.11;99261.64;1663722;86;20890;-70
2022/06/24 04:52:26;;;;;;;6.80;3.72;;;;;;;19.00;90.07;99256.14;1663875;85;21043;-69
2022/06/24 04:54:54;;;;;;;5.65;3.58;;;;;;;19.83;81.76;99265.35;1663985;85;21432;-72
2022/06/24 04:57:21;;;;;;;10.68;4.12;;;;;;;20.04;81.74;99262.73;1663799;86;20873;-71
2022/06/24 04:59:48;;;;;;;4.30;3.10;;;;;;;20.19;77.32;99269.63;1663859;86;21356;-71
2022/06/24 05:02:15;;;;;;;9.93;3.77;;;;;;;20.62;77.98;99267.33;1663772;85;20896;-72
2022/06/24 05:04:42;;;;;;;7.12;3.58;;;;;;;21.04;74.58;99270.95;1630142;87;20981;-71
2022/06/24 05:07:09;;;;;;;9.13;3.75;;;;;;;21.51;71.26;99274.94;1649648;87;20984;-73
2022/06/24 05:09:35;;;;;;;3.97;3.00;;;;;;;21.67;69.17;99274.32;1649610;87;21056;-72
2022/06/24 05:12:04;;;;;;;6.03;3.33;;;;;;;21.86;68.98;99277.94;1649293;87;21336;-72
2022/06/24 05:14:31;;;;;;;5.55;3.10;;;;;;;21.97;66.50;99268.96;1650032;86;20954;-71
2022/06/24 05:16:59;;;;;;;9.13;3.60;;;;;;;22.08;62.37;99270.72;1632938;87;20928;-72
2022/06/24 05:19:25;;;;;;;6.17;3.33;;;;;;;22.23;63.62;99281.03;1626302;88;21283;-71
2022/06/24 05:21:53;;;;;;;7.35;3.47;;;;;;;22.58;62.59;99276.53;1649620;87;21468;-72
2022/06/24 05:24:20;;;;;;;6.28;3.45;;;;;;;22.87;59.53;99280.98;1649741;87;21562;-73
2022/06/24 05:26:47;;;;;;;6.90;2.97;;;;;;;23.03;58.52;99288.56;1649892;87;20962;-73
2022/06/24 05:29:13;;;;;;;7.22;3.08;;;;;;;23.17;58.26;99286.81;1650221;87;20915;-73
2022/06/24 05:31:41;;;;;;;6.90;2.90;;;;;;;23.44;56.38;99286.64;1649791;87;20902;-73
2022/06/24 05:34:08;;;;;;;9.68;2.95;;;;;;;23.61;54.69;99287.73;1630875;87;21025;-79
2022/06/24 05:36:35;;;;;;;4.78;2.77;;;;;;;23.53;53.19;99285.95;1649876;86;21225;-72
2022/06/24 05:39:06;;;;;;;4.30;2.37;;;;;;;23.11;54.46;99282.95;1650033;86;20967;-73
2022/06/24 05:41:34;;;;;;;7.15;2.37;;;;;;;23.13;53.86;99289.45;1649646;86;21007;-72
2022/06/24 05:44:00;;;;;;;7.28;2.60;;;;;;;23.44;52.88;99292.13;1649787;86;20974;-72
2022/06/24 05:46:28;;;;;;;6.60;2.40;;;;;;;23.76;50.67;99282.12;1649642;86;21079;-72
2022/06/24 05:48:56;;;;;;;5.25;2.50;;;;;;;23.83;52.09;99284.27;1649952;86;21287;-74
2022/06/24 05:51:23;;;;;;;8.05;2.40;;;;;;;24.05;51.88;99282.34;1649841;86;21505;-73
2022/06/24 05:56:35;;;;;;;4.33;2.08;;;;;;;23.97;48.99;99294.27;1649711;86;20962;-76
2022/06/24 05:59:04;;;;;;;10.15;2.37;;;;;;;23.62;49.00;99292.09;1649746;87;21010;-72
2022/06/24 06:01:31;;;;;;;6.22;2.40;;;;;;;23.82;49.56;99290.91;1649684;86;21189;-73
2022/06/24 06:03:59;;;;;;;3.40;2.47;;;;;;;23.86;48.23;99289.87;1653824;86;20961;-71
2022/06/24 06:06:26;;;;;;;4.75;2.50;;;;;;;24.23;50.43;99292.98;1656992;86;21685;-70
2022/06/24 06:08:53;;;;;;;6.08;2.15;;;;;;;24.40;46.31;99285.81;1663736;85;21058;-72
2022/06/24 06:11:23;;;;;;;3.33;1.97;;;;;;;24.33;47.68;99281.52;1664164;85;21517;-73
2022/06/24 06:13:53;;;;;;;4.03;2.33;;;;;;;24.20;47.73;99289.00;1664043;86;21144;-70
2022/06/24 06:16:26;;;;;;;6.70;2.47;;;;;;;24.24;47.01;99287.73;1663740;86;20896;-73
2022/06/24 06:18:50;;;;;;;6.40;2.10;;;;;;;24.22;47.03;99285.91;1642151;86;21526;-70
2022/06/24 06:21:16;;;;;;;7.37;2.10;;;;;;;24.34;47.11;99282.52;1662874;86;21142;-71
2022/06/24 06:23:43;;;;;;;9.45;2.80;;;;;;;24.44;47.65;99285.31;1660373;86;20873;-70
2022/06/24 06:26:11;;;;;;;7.95;2.80;;;;;;;24.45;47.19;99282.81;1660245;86;21275;-71
2022/06/24 06:28:38;;;;;;;6.83;2.20;;;;;;;24.90;46.43;99292.55;1660349;86;20996;-68
2022/06/24 06:31:05;;;;;;;3.98;1.92;;;;;;;24.42;44.01;99273.89;1660207;86;20944;-65
2022/06/24 06:33:32;;;;;;;6.83;2.22;;;;;;;24.15;45.10;99280.45;1660224;86;20991;-71
2022/06/24 06:36:09;;;;;;;6.62;2.08;;;;;;;24.25;46.51;99280.51;1660302;86;20971;-72
2022/06/24 06:38:36;;;;;;;4.10;1.98;;;;;;;24.68;45.12;99279.47;1660691;86;22368;-71
2022/06/24 06:41:04;;;;;;;4.70;1.95;;;;;;;24.64;43.82;99282.70;1660191;86;21459;-70
2022/06/24 06:43:30;;;;;;;5.40;1.85;;;;;;;24.52;42.22;99276.16;1660374;86;21003;-71
2022/06/24 06:45:58;;;;;;;6.72;1.80;;;;;;;24.47;41.54;99284.63;1660018;86;20964;-72
2022/06/24 06:48:25;;;;;;;4.03;1.62;;;;;;;24.70;42.34;99287.57;1660633;86;20904;-73
2022/06/24 06:50:58;;;;;;;4.12;1.67;;;;;;;24.42;42.42;99279.95;1660247;86;21233;-69
2022/06/24 06:53:26;;;;;;;3.17;1.32;;;;;;;24.52;42.07;99273.42;1660459;86;20905;-70
2022/06/24 06:55:54;;;;;;;4.17;1.50;;;;;;;24.41;40.65;99284.66;1660530;86;20916;-71
2022/06/24 06:58:24;;;;;;;2.40;1.60;;;;;;;24.26;41.15;99279.38;1660194;86;21012;-78
2022/06/24 07:00:51;;;;;;;4.83;2.45;;;;;;;24.24;41.75;99278.14;1660194;86;20940;-74
2022/06/24 07:03:18;;;;;;;2.03;1.47;;;;;;;24.78;42.47;99286.58;1660151;86;21165;-73
2022/06/24 07:05:45;;;;;;;;;;;;;;;25.07;41.23;99287.26;1658395;86;20908;-73
2022/06/24 07:08:12;;;;;;;3.72;1.62;;;;;;;25.02;39.43;99288.91;1656550;86;20122;-74
2022/06/24 07:10:40;;;;;;;11.80;2.60;;;;;;;24.88;39.32;99281.70;1655977;86;21075;-75
2022/06/24 07:13:07;;;;;;;5.67;1.87;;;;;;;25.00;40.88;99283.77;1655940;86;20964;-72
2022/06/24 07:15:34;;;;;;;10.70;2.30;;;;;;;25.05;39.72;99281.33;1656215;86;21182;-74
2022/06/24 07:18:04;;;;;;;6.40;1.90;;;;;;;24.65;38.92;99285.09;1656171;86;20960;-77
2022/06/24 07:20:32;;;;;;;4.12;1.85;;;;;;;24.68;40.50;99287.13;1656210;86;20904;-72
2022/06/24 07:22:59;;;;;;;1.77;1.65;;;;;;;24.63;40.06;99287.39;1684573;85;21008;-69
2022/06/24 07:25:26;;;;;;;7.97;2.00;;;;;;;24.46;39.62;99269.33;1688009;85;21022;-73
2022/06/24 07:27:54;;;;;;;1.72;1.62;;;;;;;24.84;41.15;99282.19;1687758;85;21125;-75
2022/06/24 07:30:21;;;;;;;3.77;2.00;;;;;;;24.84;40.25;99287.09;1687710;85;20892;-71
2022/06/24 07:32:47;;;;;;;11.68;2.12;;;;;;;24.86;39.48;99284.01;1687543;85;20912;-74
2022/06/24 07:35:16;;;;;;;3.80;1.65;;;;;;;24.92;39.52;99287.50;1687766;85;21012;-75
2022/06/24 07:37:43;;;;;;;5.30;1.60;;;;;;;25.00;39.41;99298.86;1668081;85;20893;-71
2022/06/24 07:40:11;;;;;;;5.30;2.15;;;;;;;25.01;38.75;99299.10;1644491;85;20865;-72
2022/06/24 07:42:38;;;;;;;1.60;1.50;;;;;;;24.94;38.42;99270.66;1667834;85;20991;-70
2022/06/24 07:45:07;;;;;;;4.05;1.62;;;;;;;24.79;39.01;99297.80;1687832;85;21541;-71
2022/06/24 07:47:36;;;;;;;4.78;2.33;;;;;;;24.78;37.71;99290.70;1687523;85;20914;-73
2022/06/24 07:50:05;;;;;;;12.95;2.10;;;;;;;24.81;40.05;99296.84;1687845;85;21384;-71
2022/06/24 07:52:32;;;;;;;4.80;2.37;;;;;;;25.15;38.95;99304.69;1687674;85;21166;-78
2022/06/24 07:57:44;;;;;;;3.02;2.30;;;;;;;25.31;39.69;99302.74;1687745;85;20937;-74
2022/06/24 08:00:12;;;;;;;4.08;2.27;;;;;;;25.02;38.84;99285.58;1667911;85;20976;-71
2022/06/24 08:02:39;;;;;;;3.95;2.00;;;;;;;24.94;39.84;99304.42;1687865;85;20979;-70
2022/06/24 08:05:08;;;;;;;2.10;1.90;;;;;;;24.69;40.24;99281.84;1666567;84;20947;-71
2022/06/24 08:07:35;;;;;;;3.33;1.77;;;;;;;24.66;40.07;99295.48;1687939;85;21562;-71
2022/06/24 08:10:02;;;;;;;4.83;2.10;;;;;;;24.80;40.64;99294.47;1687951;85;20896;-70
2022/06/24 08:12:29;;;;;;;2.50;2.13;;;;;;;24.88;40.06;99303.09;1687623;85;20995;-71
2022/06/24 08:14:56;;;;;;;4.67;1.90;;;;;;;25.03;39.96;99281.67;1687904;85;21205;-71
2022/06/24 08:17:23;;;;;;;2.10;1.90;;;;;;;25.03;38.56;99289.91;1688053;85;21178;-70
2022/06/24 08:19:49;;;;;;;6.67;1.80;;;;;;;24.83;40.41;99277.87;1687703;85;21519;-73
2022/06/24 08:22:17;;;;;;;5.60;1.87;;;;;;;25.20;40.13;99299.73;1668318;85;21019;-71
2022/06/24 08:24:44;;;;;;;4.53;1.90;;;;;;;25.39;39.64;99299.57;1656349;86;20881;-73
2022/06/24 08:27:11;;;;;;;5.63;1.90;;;;;;;25.49;38.71;99300.95;1657859;86;21016;-76
2022/06/24 08:29:41;;;;;;;2.62;1.80;;;;;;;25.52;38.69;99297.48;1656103;86;21283;-75
2022/06/24 08:32:08;;;;;;;2.65;2.10;;;;;;;25.33;38.52;99295.50;1656764;86;20960;-73
2022/06/24 08:34:35;;;;;;;;;;;;;;;25.44;39.29;99295.95;1658664;86;20992;-70
2022/06/24 08:37:04;;;;;;;10.25;2.40;;;;;;;25.49;38.74;99292.72;1656308;86;20105;-68
2022/06/24 08:39:32;;;;;;;6.30;2.30;;;;;;;25.64;38.22;99284.98;1656403;86;21427;-70
2022/06/24 08:42:00;;;;;;;5.80;2.05;;;;;;;25.62;39.81;99297.70;1656309;86;21940;-70
2022/06/24 08:44:27;;;;;;;;;;;;;;;25.59;38.33;99288.81;1658684;86;20932;-70
2022/06/24 08:46:54;;;;;;;4.33;2.20;;;;;;;25.70;37.77;99294.55;1635212;86;20106;-69
2022/06/24 08:49:21;;;;;;;3.40;1.77;;;;;;;25.57;38.46;99288.37;1656247;86;21138;-69
2022/06/24 08:51:49;;;;;;;2.87;2.00;;;;;;;25.52;38.73;99301.02;1656485;86;21469;-68
2022/06/24 08:54:21;;;;;;;3.60;1.90;;;;;;;25.48;37.20;99298.80;1656333;86;21167;-71
2022/06/24 08:56:48;;;;;;;4.97;2.20;;;;;;;25.20;37.58;99278.35;1655799;86;21074;-74
2022/06/24 08:59:15;;;;;;;5.87;2.17;;;;;;;25.41;38.38;99290.40;1655969;86;20908;-68
2022/06/24 09:01:42;;;;;;;5.08;1.90;;;;;;;25.47;39.38;99291.69;1656264;86;20965;-73
2022/06/24 09:04:10;;;;;;;7.60;2.40;;;;;;;25.52;38.58;99276.30;1657667;85;20985;-72
2022/06/24 09:06:40;;;;;;;4.70;2.10;;;;;;;25.73;38.19;99276.53;1660204;86;21264;-73
2022/06/24 09:09:07;;;;;;;11.63;2.30;;;;;;;25.83;37.61;99274.56;1660519;86;21620;-73
2022/06/24 09:11:39;;;;;;;4.05;2.00;;;;;;;26.14;38.21;99274.18;1660621;86;20948;-69
2022/06/24 09:14:07;;;;;;;4.83;1.90;;;;;;;26.07;37.35;99265.24;1660325;86;20963;-68
2022/06/24 09:16:37;;;;;;;2.65;1.80;;;;;;;26.01;35.58;99279.06;1660401;86;21002;-70
2022/06/24 09:19:06;;;;;;;3.47;2.00;;;;;;;25.95;37.11;99272.28;1660268;86;21458;-71
2022/06/24 09:21:41;;;;;;;4.08;2.12;;;;;;;26.09;37.33;99273.89;1658457;86;20921;-75
2022/06/24 09:24:09;;;;;;;3.35;2.22;;;;;;;26.10;37.03;99279.63;1663198;86;21011;-71
2022/06/24 09:26:39;;;;;;;1.55;1.45;;;;;;;26.48;35.78;99266.92;1663455;86;20943;-72
2022/06/24 09:29:13;;;;;;;3.37;1.95;;;;;;;26.67;35.16;99267.47;1663591;86;21497;-77
2022/06/24 09:31:40;;;;;;;4.05;1.80;;;;;;;26.69;35.60;99264.56;1663099;86;21305;-73
2022/06/24 09:34:14;;;;;;;2.83;1.65;;;;;;;26.67;35.70;99267.47;1663376;86;20959;-69
2022/06/24 09:36:45;;;;;;;2.90;1.60;;;;;;;26.39;34.37;99259.52;1663122;86;21458;-64
2022/06/24 09:39:16;;;;;;;2.50;1.70;;;;;;;26.38;35.69;99262.83;1637496;86;20932;-69
2022/06/24 09:41:46;;;;;;;6.80;2.22;;;;;;;26.34;35.75;99248.23;1663465;86;20944;-73
2022/06/24 09:44:14;;;;;;;2.35;2.15;;;;;;;26.14;37.10;99262.63;1663515;86;21834;-73
2022/06/24 09:46:42;;;;;;;4.83;2.12;;;;;;;26.36;35.02;99264.36;1663273;86;20904;-72
2022/06/24 09:49:15;;;;;;;8.43;2.33;;;;;;;26.60;35.70;99261.25;1663415;86;20979;-71
2022/06/24 09:51:44;;;;;;;2.33;2.10;;;;;;;26.38;36.83;99260.08;1663335;86;21007;-70
2022/06/24 09:54:12;;;;;;;3.05;1.98;;;;;;;26.42;33.54;99262.31;1663334;86;20979;-72
2022/06/24 09:56:40;;;;;;;3.30;1.75;;;;;;;26.59;34.89;99267.15;1663255;86;21264;-77
2022/06/24 10:01:53;;;;;;;2.33;1.80;;;;;;;26.55;35.53;99257.44;1663221;86;21024;-71
2022/06/24 10:04:20;;;;;;;4.17;2.00;;;;;;;26.49;35.45;99256.14;1669730;85;20960;-72
2022/06/24 10:06:49;;;;;;;4.03;1.80;;;;;;;26.68;34.76;99249.80;1687855;83;20995;-71
2022/06/24 10:09:28;;;;;;;2.60;1.70;;;;;;;26.66;34.95;99247.41;1687970;85;21712;-75
2022/06/24 10:11:54;;;;;;;5.70;1.87;;;;;;;26.40;34.24;99247.34;1686981;85;20888;-69
2022/06/24 10:14:21;;;;;;;7.95;2.52;;;;;;;26.51;35.66;99244.98;1687481;85;20972;-73
2022/06/24 10:16:51;;;;;;;7.45;1.90;;;;;;;26.82;33.82;99251.38;1687773;85;21426;-75
2022/06/24 10:19:19;;;;;;;7.28;2.33;;;;;;;27.06;33.93;99252.13;1687725;85;20999;-72
2022/06/24 10:21:47;;;;;;;3.00;1.85;;;;;;;27.10;33.40;99252.39;1676343;85;21763;-72
2022/06/24 10:24:16;;;;;;;2.45;1.70;;;;;;;26.98;34.23;99247.10;1657383;86;20901;-72
2022/06/24 10:26:48;;;;;;;5.03;1.98;;;;;;;26.92;33.93;99241.69;1657010;86;21507;-72
2022/06/24 10:29:18;;;;;;;3.50;1.85;;;;;;;27.09;34.15;99241.14;1657978;86;20952;-75
2022/06/24 10:31:54;;;;;;;7.17;2.25;;;;;;;26.83;33.14;99240.59;1657511;86;20936;-69
2022/06/24 10:34:28;;;;;;;4.08;2.42;;;;;;;26.68;35.88;99227.20;1658063;86;21193;-72
2022/06/24 10:37:17;;;;;;;2.60;1.60;;;;;;;26.52;34.58;99225.92;1657701;86;20889;-73
2022/06/24 10:39:54;;;;;;;4.30;1.92;;;;;;;26.40;33.65;99232.99;1658062;86;20949;-73
2022/06/24 10:42:22;;;;;;;9.53;2.37;;;;;;;26.61;33.70;99230.42;1658164;86;21020;-72
2022/06/24 10:45:01;;;;;;;2.22;1.60;;;;;;;27.07;34.50;99239.37;1659597;86;21007;-74
2022/06/24 10:47:39;;;;;;;3.02;1.90;;;;;;;27.35;32.80;99231.30;1658098;86;22284;-73
2022/06/24 10:50:13;;;;;;;3.60;2.00;;;;;;;26.50;34.50;99233.74;1657232;86;20991;-74
2022/06/24 10:52:48;;;;;;;3.75;2.20;;;;;;;26.58;33.76;99237.46;1657928;86;21003;-72
2022/06/24 10:55:29;;;;;;;2.50;2.00;;;;;;;26.85;34.23;99237.45;1658008;86;20953;-72
2022/06/24 10:58:09;;;;;;;4.75;1.75;;;;;;;27.01;33.42;99231.20;1658372;86;21450;-76
2022/06/24 11:00:48;;;;;;;3.85;2.00;;;;;;;27.18;34.55;99234.59;1657775;86;21334;-73
2022/06/24 11:03:13;;;;;;;1.75;1.55;;;;;;;27.33;34.90;99221.23;1657360;86;21052;-72
2022/06/24 11:05:44;;;;;;;2.65;1.90;;;;;;;27.50;32.74;99219.86;1658032;84;21005;-71
2022/06/24 11:08:13;;;;;;;5.50;2.10;;;;;;;27.34;33.69;99222.24;1657623;86;20908;-69
2022/06/24 11:10:42;;;;;;;4.30;1.70;;;;;;;27.47;32.84;99222.78;1670494;84;21509;-72
2022/06/24 11:13:10;;;;;;;3.22;1.92;;;;;;;27.73;31.87;99218.34;1686793;84;21059;-72
2022/06/24 11:15:47;;;;;;;1.90;1.70;;;;;;;27.58;32.63;99222.91;1683910;85;21015;-73
2022/06/24 11:18:26;;;;;;;5.67;2.00;;;;;;;27.30;31.65;99210.96;1658060;86;20940;-70
2022/06/24 11:21:07;;;;;;;2.22;1.70;;;;;;;27.56;34.17;99209.52;1657860;86;20908;-72
2022/06/24 11:23:37;;;;;;;3.62;1.77;;;;;;;27.90;31.46;99215.59;1658065;86;21427;-74
2022/06/24 11:26:18;;;;;;;5.47;2.10;;;;;;;27.79;31.66;99215.47;1657685;86;21904;-73
2022/06/24 11:28:51;;;;;;;3.25;2.10;;;;;;;27.71;32.64;99216.57;1673144;84;20892;-71
2022/06/24 11:31:25;;;;;;;4.20;2.00;;;;;;;27.73;31.48;99216.40;1668209;85;21008;-73
2022/06/24 11:34:08;;;;;;;3.42;1.67;;;;;;;27.53;33.49;99203.94;1688109;85;20880;-76
2022/06/24 11:36:36;;;;;;;2.80;1.85;;;;;;;27.62;32.93;99200.91;1687664;85;20928;-70
2022/06/24 11:39:05;;;;;;;4.30;1.92;;;;;;;27.46;32.23;99214.88;1687692;85;21268;-76
2022/06/24 11:41:36;;;;;;;5.03;2.25;;;;;;;27.35;32.25;99201.77;1687868;85;20924;-73
2022/06/24 11:44:03;;;;;;;4.95;1.60;;;;;;;27.07;34.19;99202.75;1687685;85;20904;-74
2022/06/24 11:46:32;;;;;;;2.60;1.90;;;;;;;27.22;33.61;99207.89;1687646;85;20976;-72
2022/06/24 11:49:11;;;;;;;4.55;2.02;;;;;;;27.38;32.26;99201.61;1687409;85;20943;-73
2022/06/24 11:51:39;;;;;;;2.60;1.87;;;;;;;27.56;32.75;99201.80;1685272;84;21693;-72
2022/06/24 11:54:08;;;;;;;2.37;1.70;;;;;;;27.56;32.99;99199.87;1687881;85;20893;-73
2022/06/24 11:56:40;;;;;;;2.35;1.70;;;;;;;27.33;31.29;99197.80;1687616;85;20888;-71
2022/06/24 11:59:09;;;;;;;4.53;2.00;;;;;;;27.34;32.42;99200.20;1687867;84;20908;-73
2022/06/24 12:01:38;;;;;;;4.60;2.00;;;;;;;27.31;31.16;99204.27;1687389;85;20935;-72
2022/06/24 12:04:10;;;;;;;5.62;2.12;;;;;;;27.52;31.97;99185.83;1687145;85;21435;-72
2022/06/24 12:06:38;;;;;;;2.98;2.10;;;;;;;27.73;31.71;99188.83;1652350;86;21585;-72
2022/06/24 12:09:05;;;;;;;2.70;2.33;;;;;;;27.67;31.46;99184.02;1652636;86;20865;-73
2022/06/24 12:11:41;;;;;;;2.25;1.80;;;;;;;27.69;31.85;99181.69;1652617;86;20961;-74
2022/06/24 12:14:15;;;;;;;3.80;2.20;;;;;;;27.69;31.85;99181.69;1652858;86;20960;-72
2022/06/24 12:17:02;;;;;;;3.37;2.20;;;;;;;27.53;31.72;99190.95;1652491;86;21302;-72
2022/06/24 12:19:31;;;;;;;4.70;2.00;;;;;;;27.53;31.68;99181.30;1659979;86;20960;-73
2022/06/24 12:22:11;;;;;;;3.60;1.95;;;;;;;27.52;33.13;99166.54;1631626;88;21514;-71
2022/06/24 12:24:39;;;;;;;2.05;1.80;;;;;;;27.55;31.85;99177.59;1639626;86;20968;-72
2022/06/24 12:27:07;;;;;;;1.82;1.72;;;;;;;27.38;32.00;99161.66;1662668;86;20940;-73
2022/06/24 12:29:40;;;;;;;4.65;2.40;;;;;;;27.44;32.54;99169.80;1631829;87;21802;-74
2022/06/24 12:32:09;;;;;;;5.45;2.10;;;;;;;27.61;31.95;99166.22;1659885;86;21039;-74
2022/06/24 12:34:40;;;;;;;8.58;2.27;;;;;;;27.93;32.75;99177.63;1662297;86;20944;-71
2022/06/24 12:37:11;;;;;;;10.13;2.30;;;;;;;27.84;31.79;99181.28;1652391;86;20956;-71
2022/06/24 12:39:42;;;;;;;2.25;1.95;;;;;;;27.57;32.58;99173.09;1660317;86;21569;-71
2022/06/24 12:42:17;;;;;;;5.83;2.00;;;;;;;27.45;32.17;99170.00;1660705;86;21228;-73
2022/06/24 12:44:53;;;;;;;6.22;2.12;;;;;;;27.53;32.70;99159.25;1656907;86;20949;-69
2022/06/24 12:53:03;;;;;;;5.25;2.35;;;;;;;27.59;31.69;99169.38;1660116;86;21553;-73
2022/06/24 12:55:32;;;;;;;3.62;2.40;;;;;;;27.83;31.69;99174.98;1657905;86;21171;-74
2022/06/24 12:57:59;;;;;;;6.15;2.22;;;;;;;28.04;32.03;99163.92;1657811;86;20916;-75
2022/06/24 13:00:27;;;;;;;6.25;2.20;;;;;;;28.57;31.44;99164.96;1658006;86;20998;-71